Airfield :
LOGIN :

Register | Disclaimer

   EN    FR    IT 

 










Legend :    VFR   Marginal VFR   IFR   Intensive IFR   Very Intensive IFR
Visi :
Ceiling :
>= 8 km
>= 3000ft
5 to 8 km
1000 to 3000 ft
1500m to 5 km
500 to 1000 ft
800 to 1500m
200 to 500 ft
< 800m
< 200 ft
Symbols :   Thunderstorms  Fog  Heavy snow  Heavy precipitations  Wind > 20 kt
SIGMETs :     Misc.  Thunderstorms  Icing  Turbulence  Mountain Waves  Volcanic Ashes







- Airport Elevation : 26 ft
- IATA code : GLA
- Download approach charts


EGPF - Glasgow

CURRENT METAR :
  • 162150Z AUTO 19021G31KT 9999 -RA BKN018/// BKN029/// BKN038/// //////CB 14/11 Q0993 RERA

EXPIRED METARs :
  • 162120Z AUTO 18022KT 3500 RA BKN017/// BKN024/// //////CB 14/11 Q0992
  • 162050Z AUTO 18016G27KT 7000 -RA BKN016/// //////CB 13/12 Q0992 RERA
  • 162020Z AUTO 16020KT 4100 -RA BKN019/// BKN028/// //////TCU 14/11 Q0992
  • 161950Z AUTO 16020KT 9000 -RA BKN020/// OVC024/// //////TCU 14/11 Q0993
  • 161920Z AUTO 16019G32KT 9999 BKN021/// OVC025/// //////TCU 14/10 Q0993

TAF AMD TAF EGPF
Valid from the 16 at 21:00 until the 17 at 18:00 UTC


162107Z 1621/1718 18018G28KT 9999 FEW012 SCT020
BECMG 1621/1624 21030G43KT
TEMPO 1621/1706 4500 RADZ BKN012
BECMG 1704/1707 25020G35KT
TEMPO 1706/1714 7000 RA BKN012
BECMG 1709/1712 26015G25KT
BECMG 1714/1717 26008KT
ATIS : +44 141 887 7449
No reported NOTAMs for that airfield.
3 SIGMETs reported for the Scottish FIR (EGPX) :
 
Severe turbulence
EGPX SIGMET 11 VALID 162100/170100 EGRR
EGPX SCOTTISH FIR SEV TURB FCST S OF LINE N6000 W01000 - N6000 E00000 SFC/FL060 MOV N 15KT NC=
Severe mountain waves
EGPX SIGMET 10 VALID 162100/170100 EGRR
EGPX SCOTTISH FIR SEV MTW FCST S OF N5930 AND W OF E00000 FL030/220 MOV N 15KT NC=
Severe icing
EGPX SIGMET 09 VALID 161900/162300 EGRR
EGPX SCOTTISH FIR SEV ICE FCST WI N6100 W00410 - N6100 W00217 - N5952 W00218 - N5855 W01000 - N6026 W01000 - N6100 W00410 FL060/120 MOV N 15KT NC=



MET'MAP, your aeronautical weather chart ! - Copyright ORBIFLY December 2007 - Disclaimer

ORBIFLY MET'MAP TEAM :

Programming & Development : Alexandra Zaïnal
Concept & Development : Baudouin d'Aumeries
Co-Development & Prog : Marc-Olivier Méhu
Technical & hardware support : Manuel Goepfert

Contact : metmap@orbifly.com




SOURCES & CREDITS :

   NOAA